sensor_id;sensor_type;location;lat;lon;timestamp;P1;durP1;ratioP1;P2;durP2;ratioP2
10845;SDS011;5476;51.540;7.186;2022-08-19T00:01:17;9.75;;;7.57;;
10845;SDS011;5476;51.540;7.186;2022-08-19T00:03:48;8.20;;;7.40;;
10845;SDS011;5476;51.540;7.186;2022-08-19T00:06:17;8.68;;;7.22;;
10845;SDS011;5476;51.540;7.186;2022-08-19T00:08:49;7.85;;;7.13;;
10845;SDS011;5476;51.540;7.186;2022-08-19T00:11:18;12.38;;;7.55;;
10845;SDS011;5476;51.540;7.186;2022-08-19T00:13:47;9.90;;;7.85;;
10845;SDS011;5476;51.540;7.186;2022-08-19T00:16:26;8.00;;;7.20;;
10845;SDS011;5476;51.540;7.186;2022-08-19T00:19:08;9.38;;;7.70;;
10845;SDS011;5476;51.540;7.186;2022-08-19T00:21:39;9.10;;;7.88;;
10845;SDS011;5476;51.540;7.186;2022-08-19T00:24:09;9.15;;;7.60;;
10845;SDS011;5476;51.540;7.186;2022-08-19T00:26:46;9.60;;;7.57;;
10845;SDS011;5476;51.540;7.186;2022-08-19T00:29:16;7.40;;;6.70;;
10845;SDS011;5476;51.540;7.186;2022-08-19T00:31:47;9.07;;;8.13;;
10845;SDS011;5476;51.540;7.186;2022-08-19T00:34:21;8.25;;;7.03;;
10845;SDS011;5476;51.540;7.186;2022-08-19T00:36:56;9.55;;;7.75;;
10845;SDS011;5476;51.540;7.186;2022-08-19T00:39:37;10.50;;;7.60;;
10845;SDS011;5476;51.540;7.186;2022-08-19T00:42:10;7.57;;;6.78;;
10845;SDS011;5476;51.540;7.186;2022-08-19T00:44:44;9.05;;;7.43;;
10845;SDS011;5476;51.540;7.186;2022-08-19T00:47:13;9.27;;;8.38;;
10845;SDS011;5476;51.540;7.186;2022-08-19T00:49:43;10.00;;;8.18;;
10845;SDS011;5476;51.540;7.186;2022-08-19T00:52:18;10.75;;;8.60;;
10845;SDS011;5476;51.540;7.186;2022-08-19T00:54:49;10.20;;;7.90;;
10845;SDS011;5476;51.540;7.186;2022-08-19T00:57:26;9.90;;;8.90;;
10845;SDS011;5476;51.540;7.186;2022-08-19T01:00:14;8.45;;;7.57;;
10845;SDS011;5476;51.540;7.186;2022-08-19T01:02:45;8.40;;;7.55;;
10845;SDS011;5476;51.540;7.186;2022-08-19T01:05:15;7.90;;;7.15;;
10845;SDS011;5476;51.540;7.186;2022-08-19T01:07:47;8.13;;;7.32;;
10845;SDS011;5476;51.540;7.186;2022-08-19T01:10:18;10.07;;;7.95;;
10845;SDS011;5476;51.540;7.186;2022-08-19T01:12:51;8.05;;;7.25;;
10845;SDS011;5476;51.540;7.186;2022-08-19T01:15:23;8.50;;;7.20;;
10845;SDS011;5476;51.540;7.186;2022-08-19T01:17:55;8.80;;;7.97;;
10845;SDS011;5476;51.540;7.186;2022-08-19T01:20:26;8.95;;;8.13;;
10845;SDS011;5476;51.540;7.186;2022-08-19T01:22:56;8.80;;;8.00;;
10845;SDS011;5476;51.540;7.186;2022-08-19T01:25:29;8.70;;;7.82;;
10845;SDS011;5476;51.540;7.186;2022-08-19T01:28:00;9.32;;;8.43;;
10845;SDS011;5476;51.540;7.186;2022-08-19T01:30:30;8.38;;;7.57;;
10845;SDS011;5476;51.540;7.186;2022-08-19T01:33:03;8.80;;;8.00;;
10845;SDS011;5476;51.540;7.186;2022-08-19T01:35:32;8.95;;;8.05;;
10845;SDS011;5476;51.540;7.186;2022-08-19T01:38:20;7.75;;;7.00;;
10845;SDS011;5476;51.540;7.186;2022-08-19T01:41:01;8.85;;;7.95;;
10845;SDS011;5476;51.540;7.186;2022-08-19T01:43:30;8.80;;;7.28;;
10845;SDS011;5476;51.540;7.186;2022-08-19T01:46:06;8.20;;;7.50;;
10845;SDS011;5476;51.540;7.186;2022-08-19T01:51:34;9.82;;;8.13;;
10845;SDS011;5476;51.540;7.186;2022-08-19T01:54:08;8.05;;;7.35;;
10845;SDS011;5476;51.540;7.186;2022-08-19T01:56:43;8.45;;;7.65;;
10845;SDS011;5476;51.540;7.186;2022-08-19T01:59:21;8.63;;;7.65;;
10845;SDS011;5476;51.540;7.186;2022-08-19T02:02:04;9.57;;;8.55;;
10845;SDS011;5476;51.540;7.186;2022-08-19T02:04:36;8.70;;;7.72;;
10845;SDS011;5476;51.540;7.186;2022-08-19T02:07:16;9.55;;;7.57;;
10845;SDS011;5476;51.540;7.186;2022-08-19T02:10:00;10.73;;;8.13;;
10845;SDS011;5476;51.540;7.186;2022-08-19T02:12:36;9.73;;;7.70;;
10845;SDS011;5476;51.540;7.186;2022-08-19T02:15:10;7.47;;;6.85;;
10845;SDS011;5476;51.540;7.186;2022-08-19T02:17:45;8.55;;;7.63;;
10845;SDS011;5476;51.540;7.186;2022-08-19T02:20:18;9.68;;;8.40;;
10845;SDS011;5476;51.540;7.186;2022-08-19T02:22:46;10.20;;;8.02;;
10845;SDS011;5476;51.540;7.186;2022-08-19T02:25:21;8.50;;;7.63;;
10845;SDS011;5476;51.540;7.186;2022-08-19T02:27:51;8.45;;;7.65;;
10845;SDS011;5476;51.540;7.186;2022-08-19T02:30:23;12.00;;;8.48;;
10845;SDS011;5476;51.540;7.186;2022-08-19T02:33:00;11.15;;;8.15;;
10845;SDS011;5476;51.540;7.186;2022-08-19T02:35:50;10.85;;;8.63;;
10845;SDS011;5476;51.540;7.186;2022-08-19T02:38:30;10.02;;;9.02;;
10845;SDS011;5476;51.540;7.186;2022-08-19T02:41:01;9.60;;;8.70;;
10845;SDS011;5476;51.540;7.186;2022-08-19T02:43:35;12.00;;;8.90;;
10845;SDS011;5476;51.540;7.186;2022-08-19T02:46:11;10.07;;;8.32;;
10845;SDS011;5476;51.540;7.186;2022-08-19T02:48:43;13.23;;;10.05;;
10845;SDS011;5476;51.540;7.186;2022-08-19T02:51:15;10.45;;;9.32;;
10845;SDS011;5476;51.540;7.186;2022-08-19T02:53:46;10.10;;;9.10;;
10845;SDS011;5476;51.540;7.186;2022-08-19T02:56:19;11.70;;;9.68;;
10845;SDS011;5476;51.540;7.186;2022-08-19T02:58:48;12.48;;;9.93;;
10845;SDS011;5476;51.540;7.186;2022-08-19T03:01:20;12.23;;;9.75;;
10845;SDS011;5476;51.540;7.186;2022-08-19T03:04:04;11.07;;;9.93;;
10845;SDS011;5476;51.540;7.186;2022-08-19T03:06:45;10.95;;;9.90;;
10845;SDS011;5476;51.540;7.186;2022-08-19T03:09:19;11.88;;;10.68;;
10845;SDS011;5476;51.540;7.186;2022-08-19T03:12:04;13.43;;;11.05;;
10845;SDS011;5476;51.540;7.186;2022-08-19T03:14:42;11.25;;;10.20;;
10845;SDS011;5476;51.540;7.186;2022-08-19T03:17:19;13.82;;;10.40;;
10845;SDS011;5476;51.540;7.186;2022-08-19T03:19:47;13.27;;;11.27;;
10845;SDS011;5476;51.540;7.186;2022-08-19T03:22:20;12.05;;;10.90;;
10845;SDS011;5476;51.540;7.186;2022-08-19T03:24:55;13.98;;;10.95;;
10845;SDS011;5476;51.540;7.186;2022-08-19T03:27:28;13.15;;;11.60;;
10845;SDS011;5476;51.540;7.186;2022-08-19T03:30:00;13.32;;;11.98;;
10845;SDS011;5476;51.540;7.186;2022-08-19T03:32:28;15.48;;;11.27;;
10845;SDS011;5476;51.540;7.186;2022-08-19T03:35:00;12.88;;;11.23;;
10845;SDS011;5476;51.540;7.186;2022-08-19T03:37:41;12.05;;;10.88;;
10845;SDS011;5476;51.540;7.186;2022-08-19T03:40:15;12.00;;;10.70;;
10845;SDS011;5476;51.540;7.186;2022-08-19T03:42:54;13.68;;;11.68;;
10845;SDS011;5476;51.540;7.186;2022-08-19T03:45:33;12.23;;;10.93;;
10845;SDS011;5476;51.540;7.186;2022-08-19T03:48:04;12.02;;;10.82;;
10845;SDS011;5476;51.540;7.186;2022-08-19T03:50:40;12.13;;;10.93;;
10845;SDS011;5476;51.540;7.186;2022-08-19T03:53:15;14.52;;;10.80;;
10845;SDS011;5476;51.540;7.186;2022-08-19T03:56:15;11.93;;;10.68;;
10845;SDS011;5476;51.540;7.186;2022-08-19T03:58:46;11.63;;;10.20;;
10845;SDS011;5476;51.540;7.186;2022-08-19T04:01:20;11.30;;;10.13;;
10845;SDS011;5476;51.540;7.186;2022-08-19T04:04:03;12.27;;;11.07;;
10845;SDS011;5476;51.540;7.186;2022-08-19T04:06:33;11.65;;;10.00;;
10845;SDS011;5476;51.540;7.186;2022-08-19T04:09:07;12.18;;;10.70;;
10845;SDS011;5476;51.540;7.186;2022-08-19T04:11:53;14.13;;;11.05;;
10845;SDS011;5476;51.540;7.186;2022-08-19T04:14:40;13.60;;;11.45;;
10845;SDS011;5476;51.540;7.186;2022-08-19T04:17:14;12.23;;;11.02;;
10845;SDS011;5476;51.540;7.186;2022-08-19T04:19:52;15.13;;;11.90;;
10845;SDS011;5476;51.540;7.186;2022-08-19T04:22:28;13.07;;;11.75;;
10845;SDS011;5476;51.540;7.186;2022-08-19T04:24:58;12.88;;;11.57;;
10845;SDS011;5476;51.540;7.186;2022-08-19T04:27:29;12.95;;;11.50;;
10845;SDS011;5476;51.540;7.186;2022-08-19T04:30:04;13.18;;;11.80;;
10845;SDS011;5476;51.540;7.186;2022-08-19T04:32:33;13.98;;;11.88;;
10845;SDS011;5476;51.540;7.186;2022-08-19T04:35:14;13.68;;;12.18;;
10845;SDS011;5476;51.540;7.186;2022-08-19T04:38:08;13.23;;;11.70;;
10845;SDS011;5476;51.540;7.186;2022-08-19T04:40:44;13.15;;;11.43;;
10845;SDS011;5476;51.540;7.186;2022-08-19T04:43:51;12.25;;;11.05;;
10845;SDS011;5476;51.540;7.186;2022-08-19T04:46:27;13.40;;;11.23;;
10845;SDS011;5476;51.540;7.186;2022-08-19T04:49:05;12.20;;;10.93;;
10845;SDS011;5476;51.540;7.186;2022-08-19T04:52:04;13.82;;;11.90;;
10845;SDS011;5476;51.540;7.186;2022-08-19T04:54:30;13.52;;;11.95;;
10845;SDS011;5476;51.540;7.186;2022-08-19T04:57:01;13.23;;;11.88;;
10845;SDS011;5476;51.540;7.186;2022-08-19T04:59:31;12.77;;;11.35;;
10845;SDS011;5476;51.540;7.186;2022-08-19T05:02:02;13.48;;;11.02;;
10845;SDS011;5476;51.540;7.186;2022-08-19T05:04:31;12.18;;;10.98;;
10845;SDS011;5476;51.540;7.186;2022-08-19T05:07:03;12.50;;;11.13;;
10845;SDS011;5476;51.540;7.186;2022-08-19T05:09:31;11.63;;;10.50;;
10845;SDS011;5476;51.540;7.186;2022-08-19T05:12:05;11.90;;;10.77;;
10845;SDS011;5476;51.540;7.186;2022-08-19T05:14:41;12.23;;;11.02;;
10845;SDS011;5476;51.540;7.186;2022-08-19T05:17:12;12.77;;;10.70;;
10845;SDS011;5476;51.540;7.186;2022-08-19T05:19:39;14.63;;;11.93;;
10845;SDS011;5476;51.540;7.186;2022-08-19T05:22:27;13.65;;;12.18;;
10845;SDS011;5476;51.540;7.186;2022-08-19T05:25:05;13.38;;;12.02;;
10845;SDS011;5476;51.540;7.186;2022-08-19T05:27:35;14.48;;;13.07;;
10845;SDS011;5476;51.540;7.186;2022-08-19T05:30:03;13.82;;;12.43;;
10845;SDS011;5476;51.540;7.186;2022-08-19T05:32:33;13.88;;;12.48;;
10845;SDS011;5476;51.540;7.186;2022-08-19T05:35:00;14.70;;;13.18;;
10845;SDS011;5476;51.540;7.186;2022-08-19T05:37:28;13.43;;;11.98;;
10845;SDS011;5476;51.540;7.186;2022-08-19T05:39:56;14.95;;;12.50;;
10845;SDS011;5476;51.540;7.186;2022-08-19T05:42:24;14.35;;;12.85;;
10845;SDS011;5476;51.540;7.186;2022-08-19T05:44:51;14.20;;;12.68;;
10845;SDS011;5476;51.540;7.186;2022-08-19T05:47:21;14.27;;;12.88;;
10845;SDS011;5476;51.540;7.186;2022-08-19T05:49:51;16.05;;;13.18;;
10845;SDS011;5476;51.540;7.186;2022-08-19T05:52:18;15.35;;;13.88;;
10845;SDS011;5476;51.540;7.186;2022-08-19T05:54:46;16.88;;;15.10;;
10845;SDS011;5476;51.540;7.186;2022-08-19T05:57:16;18.08;;;14.45;;
10845;SDS011;5476;51.540;7.186;2022-08-19T05:59:44;19.75;;;15.13;;
10845;SDS011;5476;51.540;7.186;2022-08-19T06:02:19;16.13;;;14.40;;
10845;SDS011;5476;51.540;7.186;2022-08-19T06:04:54;16.90;;;14.90;;
10845;SDS011;5476;51.540;7.186;2022-08-19T06:07:27;16.85;;;15.15;;
10845;SDS011;5476;51.540;7.186;2022-08-19T06:09:55;18.20;;;16.40;;
10845;SDS011;5476;51.540;7.186;2022-08-19T06:12:28;17.67;;;15.77;;
10845;SDS011;5476;51.540;7.186;2022-08-19T06:15:00;19.13;;;17.10;;
10845;SDS011;5476;51.540;7.186;2022-08-19T06:17:34;20.77;;;17.48;;
10845;SDS011;5476;51.540;7.186;2022-08-19T06:20:04;19.35;;;17.38;;
10845;SDS011;5476;51.540;7.186;2022-08-19T06:22:39;21.55;;;17.45;;
10845;SDS011;5476;51.540;7.186;2022-08-19T06:25:12;20.45;;;16.48;;
10845;SDS011;5476;51.540;7.186;2022-08-19T06:27:41;23.30;;;17.77;;
10845;SDS011;5476;51.540;7.186;2022-08-19T06:30:10;18.92;;;16.95;;
10845;SDS011;5476;51.540;7.186;2022-08-19T06:32:38;18.75;;;16.33;;
10845;SDS011;5476;51.540;7.186;2022-08-19T06:35:08;18.17;;;16.08;;
10845;SDS011;5476;51.540;7.186;2022-08-19T06:37:36;19.48;;;17.13;;
10845;SDS011;5476;51.540;7.186;2022-08-19T06:40:04;22.13;;;16.63;;
10845;SDS011;5476;51.540;7.186;2022-08-19T06:42:33;21.27;;;18.20;;
10845;SDS011;5476;51.540;7.186;2022-08-19T06:45:05;20.35;;;16.92;;
10845;SDS011;5476;51.540;7.186;2022-08-19T06:47:38;23.25;;;18.13;;
10845;SDS011;5476;51.540;7.186;2022-08-19T06:50:15;20.52;;;18.10;;
10845;SDS011;5476;51.540;7.186;2022-08-19T06:53:00;21.20;;;17.80;;
10845;SDS011;5476;51.540;7.186;2022-08-19T06:55:28;19.42;;;16.15;;
10845;SDS011;5476;51.540;7.186;2022-08-19T06:58:01;22.40;;;17.23;;
10845;SDS011;5476;51.540;7.186;2022-08-19T07:00:46;19.52;;;17.52;;
10845;SDS011;5476;51.540;7.186;2022-08-19T07:03:17;22.90;;;17.85;;
10845;SDS011;5476;51.540;7.186;2022-08-19T07:06:00;25.20;;;19.08;;
10845;SDS011;5476;51.540;7.186;2022-08-19T07:08:37;21.67;;;19.23;;
10845;SDS011;5476;51.540;7.186;2022-08-19T07:11:12;24.80;;;18.85;;
10845;SDS011;5476;51.540;7.186;2022-08-19T07:13:44;25.05;;;18.83;;
10845;SDS011;5476;51.540;7.186;2022-08-19T07:16:23;20.25;;;17.58;;
10845;SDS011;5476;51.540;7.186;2022-08-19T07:18:54;23.45;;;17.00;;
10845;SDS011;5476;51.540;7.186;2022-08-19T07:21:25;21.02;;;17.98;;
10845;SDS011;5476;51.540;7.186;2022-08-19T07:24:41;23.80;;;18.20;;
10845;SDS011;5476;51.540;7.186;2022-08-19T07:27:20;24.35;;;18.08;;
10845;SDS011;5476;51.540;7.186;2022-08-19T07:30:00;25.50;;;18.88;;
10845;SDS011;5476;51.540;7.186;2022-08-19T07:33:40;22.23;;;19.55;;
10845;SDS011;5476;51.540;7.186;2022-08-19T07:36:14;25.13;;;19.50;;
10845;SDS011;5476;51.540;7.186;2022-08-19T07:39:09;20.45;;;18.17;;
10845;SDS011;5476;51.540;7.186;2022-08-19T07:41:50;25.00;;;18.67;;
10845;SDS011;5476;51.540;7.186;2022-08-19T07:44:42;24.25;;;18.08;;
10845;SDS011;5476;51.540;7.186;2022-08-19T07:47:55;23.33;;;18.65;;
10845;SDS011;5476;51.540;7.186;2022-08-19T07:50:49;23.02;;;18.73;;
10845;SDS011;5476;51.540;7.186;2022-08-19T07:54:01;23.88;;;19.38;;
10845;SDS011;5476;51.540;7.186;2022-08-19T07:57:04;23.58;;;19.33;;
10845;SDS011;5476;51.540;7.186;2022-08-19T08:00:03;23.98;;;19.90;;
10845;SDS011;5476;51.540;7.186;2022-08-19T08:02:40;26.00;;;19.35;;
10845;SDS011;5476;51.540;7.186;2022-08-19T08:05:12;28.65;;;21.13;;
10845;SDS011;5476;51.540;7.186;2022-08-19T08:07:57;27.20;;;19.73;;
10845;SDS011;5476;51.540;7.186;2022-08-19T08:13:39;26.70;;;21.40;;
10845;SDS011;5476;51.540;7.186;2022-08-19T08:16:27;25.05;;;19.95;;
10845;SDS011;5476;51.540;7.186;2022-08-19T08:19:12;24.48;;;20.27;;
10845;SDS011;5476;51.540;7.186;2022-08-19T08:21:50;25.63;;;21.38;;
10845;SDS011;5476;51.540;7.186;2022-08-19T08:24:20;26.40;;;20.65;;
10845;SDS011;5476;51.540;7.186;2022-08-19T08:27:10;23.38;;;20.02;;
10845;SDS011;5476;51.540;7.186;2022-08-19T08:29:44;25.00;;;21.42;;
10845;SDS011;5476;51.540;7.186;2022-08-19T08:32:22;26.15;;;22.08;;
10845;SDS011;5476;51.540;7.186;2022-08-19T08:35:04;27.52;;;21.85;;
10845;SDS011;5476;51.540;7.186;2022-08-19T08:47:36;27.35;;;22.80;;
10845;SDS011;5476;51.540;7.186;2022-08-19T08:50:21;31.75;;;23.77;;
10845;SDS011;5476;51.540;7.186;2022-08-19T08:53:27;28.65;;;24.02;;
10845;SDS011;5476;51.540;7.186;2022-08-19T08:55:56;28.42;;;24.77;;
10845;SDS011;5476;51.540;7.186;2022-08-19T08:58:25;29.63;;;25.20;;
10845;SDS011;5476;51.540;7.186;2022-08-19T09:00:57;30.70;;;25.25;;
10845;SDS011;5476;51.540;7.186;2022-08-19T09:03:28;30.98;;;25.85;;
10845;SDS011;5476;51.540;7.186;2022-08-19T09:05:58;34.58;;;27.85;;
10845;SDS011;5476;51.540;7.186;2022-08-19T09:08:34;25.60;;;22.83;;
10845;SDS011;5476;51.540;7.186;2022-08-19T09:11:13;27.08;;;23.67;;
10845;SDS011;5476;51.540;7.186;2022-08-19T09:13:57;23.27;;;20.65;;
10845;SDS011;5476;51.540;7.186;2022-08-19T09:16:37;21.00;;;17.25;;
10845;SDS011;5476;51.540;7.186;2022-08-19T09:22:13;17.85;;;15.95;;
10845;SDS011;5476;51.540;7.186;2022-08-19T09:24:41;18.50;;;16.00;;
10845;SDS011;5476;51.540;7.186;2022-08-19T09:27:09;18.35;;;15.15;;
10845;SDS011;5476;51.540;7.186;2022-08-19T09:29:36;18.42;;;16.20;;
10845;SDS011;5476;51.540;7.186;2022-08-19T09:32:06;15.77;;;14.18;;
10845;SDS011;5476;51.540;7.186;2022-08-19T09:34:34;16.35;;;14.77;;
10845;SDS011;5476;51.540;7.186;2022-08-19T09:37:04;15.77;;;14.25;;
10845;SDS011;5476;51.540;7.186;2022-08-19T09:39:31;16.48;;;14.88;;
10845;SDS011;5476;51.540;7.186;2022-08-19T09:42:00;16.27;;;13.68;;
10845;SDS011;5476;51.540;7.186;2022-08-19T09:44:28;17.50;;;15.70;;
10845;SDS011;5476;51.540;7.186;2022-08-19T09:46:56;15.45;;;14.05;;
10845;SDS011;5476;51.540;7.186;2022-08-19T09:49:27;15.25;;;13.70;;
10845;SDS011;5476;51.540;7.186;2022-08-19T09:51:55;16.27;;;14.55;;
10845;SDS011;5476;51.540;7.186;2022-08-19T09:54:23;16.67;;;14.90;;
10845;SDS011;5476;51.540;7.186;2022-08-19T09:56:51;17.58;;;15.88;;
10845;SDS011;5476;51.540;7.186;2022-08-19T09:59:18;18.48;;;16.67;;
10845;SDS011;5476;51.540;7.186;2022-08-19T10:01:48;18.23;;;16.42;;
10845;SDS011;5476;51.540;7.186;2022-08-19T10:04:17;18.15;;;16.30;;
10845;SDS011;5476;51.540;7.186;2022-08-19T10:06:48;18.30;;;16.40;;
10845;SDS011;5476;51.540;7.186;2022-08-19T10:09:17;16.90;;;15.18;;
10845;SDS011;5476;51.540;7.186;2022-08-19T10:11:45;17.08;;;15.27;;
10845;SDS011;5476;51.540;7.186;2022-08-19T10:14:15;19.23;;;17.20;;
10845;SDS011;5476;51.540;7.186;2022-08-19T10:16:47;18.58;;;16.77;;
10845;SDS011;5476;51.540;7.186;2022-08-19T10:19:16;17.80;;;15.85;;
10845;SDS011;5476;51.540;7.186;2022-08-19T10:21:45;18.40;;;16.50;;
10845;SDS011;5476;51.540;7.186;2022-08-19T10:24:14;14.90;;;13.25;;
10845;SDS011;5476;51.540;7.186;2022-08-19T10:26:42;14.18;;;12.75;;
10845;SDS011;5476;51.540;7.186;2022-08-19T10:29:11;14.13;;;12.75;;
10845;SDS011;5476;51.540;7.186;2022-08-19T10:31:41;17.55;;;15.85;;
10845;SDS011;5476;51.540;7.186;2022-08-19T10:34:09;16.80;;;15.10;;
10845;SDS011;5476;51.540;7.186;2022-08-19T10:36:37;15.57;;;14.13;;
10845;SDS011;5476;51.540;7.186;2022-08-19T10:39:06;15.38;;;13.77;;
10845;SDS011;5476;51.540;7.186;2022-08-19T10:41:39;15.13;;;13.75;;
10845;SDS011;5476;51.540;7.186;2022-08-19T10:44:09;17.60;;;15.90;;
10845;SDS011;5476;51.540;7.186;2022-08-19T10:46:39;14.57;;;13.07;;
10845;SDS011;5476;51.540;7.186;2022-08-19T10:49:10;16.40;;;13.55;;
10845;SDS011;5476;51.540;7.186;2022-08-19T10:51:38;14.60;;;13.13;;
10845;SDS011;5476;51.540;7.186;2022-08-19T10:54:24;15.57;;;13.93;;
10845;SDS011;5476;51.540;7.186;2022-08-19T10:57:14;13.43;;;12.23;;
10845;SDS011;5476;51.540;7.186;2022-08-19T10:59:43;13.48;;;11.70;;
10845;SDS011;5476;51.540;7.186;2022-08-19T11:02:11;11.90;;;10.65;;
10845;SDS011;5476;51.540;7.186;2022-08-19T11:04:39;12.93;;;11.63;;
10845;SDS011;5476;51.540;7.186;2022-08-19T11:07:07;14.80;;;13.27;;
10845;SDS011;5476;51.540;7.186;2022-08-19T11:09:39;14.80;;;13.38;;
10845;SDS011;5476;51.540;7.186;2022-08-19T11:12:08;14.10;;;12.73;;
10845;SDS011;5476;51.540;7.186;2022-08-19T11:14:39;11.65;;;10.65;;
10845;SDS011;5476;51.540;7.186;2022-08-19T11:17:10;15.75;;;14.25;;
10845;SDS011;5476;51.540;7.186;2022-08-19T11:19:39;17.33;;;15.50;;
10845;SDS011;5476;51.540;7.186;2022-08-19T11:22:07;17.73;;;15.93;;
10845;SDS011;5476;51.540;7.186;2022-08-19T11:24:36;17.25;;;15.52;;
10845;SDS011;5476;51.540;7.186;2022-08-19T11:27:05;17.40;;;14.48;;
10845;SDS011;5476;51.540;7.186;2022-08-19T11:29:36;17.80;;;16.15;;
10845;SDS011;5476;51.540;7.186;2022-08-19T11:32:07;18.55;;;16.73;;
10845;SDS011;5476;51.540;7.186;2022-08-19T11:34:39;17.13;;;15.48;;
10845;SDS011;5476;51.540;7.186;2022-08-19T11:37:07;16.23;;;14.70;;
10845;SDS011;5476;51.540;7.186;2022-08-19T11:39:44;17.63;;;16.00;;
10845;SDS011;5476;51.540;7.186;2022-08-19T11:42:17;16.95;;;15.23;;
10845;SDS011;5476;51.540;7.186;2022-08-19T11:45:04;15.30;;;13.70;;
10845;SDS011;5476;51.540;7.186;2022-08-19T11:47:32;15.40;;;13.90;;
10845;SDS011;5476;51.540;7.186;2022-08-19T11:50:00;16.42;;;14.93;;
10845;SDS011;5476;51.540;7.186;2022-08-19T11:52:27;19.40;;;17.45;;
10845;SDS011;5476;51.540;7.186;2022-08-19T11:54:55;19.65;;;17.85;;
10845;SDS011;5476;51.540;7.186;2022-08-19T11:57:23;20.27;;;18.40;;
10845;SDS011;5476;51.540;7.186;2022-08-19T11:59:51;19.55;;;17.58;;
10845;SDS011;5476;51.540;7.186;2022-08-19T12:02:20;19.35;;;17.45;;
10845;SDS011;5476;51.540;7.186;2022-08-19T12:04:48;16.98;;;15.43;;
10845;SDS011;5476;51.540;7.186;2022-08-19T12:07:19;19.65;;;17.65;;
10845;SDS011;5476;51.540;7.186;2022-08-19T12:09:46;14.60;;;13.40;;
10845;SDS011;5476;51.540;7.186;2022-08-19T12:12:14;15.20;;;13.90;;
10845;SDS011;5476;51.540;7.186;2022-08-19T12:14:42;15.00;;;13.13;;
10845;SDS011;5476;51.540;7.186;2022-08-19T12:17:11;15.65;;;14.20;;
10845;SDS011;5476;51.540;7.186;2022-08-19T12:19:40;15.68;;;14.27;;
10845;SDS011;5476;51.540;7.186;2022-08-19T12:22:08;15.88;;;14.48;;
10845;SDS011;5476;51.540;7.186;2022-08-19T12:24:39;12.55;;;11.30;;
10845;SDS011;5476;51.540;7.186;2022-08-19T12:27:06;12.90;;;11.68;;
10845;SDS011;5476;51.540;7.186;2022-08-19T12:29:33;13.88;;;12.57;;
10845;SDS011;5476;51.540;7.186;2022-08-19T12:32:04;13.07;;;11.88;;
10845;SDS011;5476;51.540;7.186;2022-08-19T12:34:32;13.40;;;12.20;;
10845;SDS011;5476;51.540;7.186;2022-08-19T12:37:04;12.93;;;11.68;;
10845;SDS011;5476;51.540;7.186;2022-08-19T12:39:34;12.60;;;11.40;;
10845;SDS011;5476;51.540;7.186;2022-08-19T12:42:03;12.77;;;11.43;;
10845;SDS011;5476;51.540;7.186;2022-08-19T12:44:32;11.77;;;10.77;;
10845;SDS011;5476;51.540;7.186;2022-08-19T12:47:00;12.55;;;11.35;;
10845;SDS011;5476;51.540;7.186;2022-08-19T12:49:29;11.18;;;10.07;;
10845;SDS011;5476;51.540;7.186;2022-08-19T12:51:59;9.88;;;9.07;;
10845;SDS011;5476;51.540;7.186;2022-08-19T12:54:31;10.75;;;9.73;;
10845;SDS011;5476;51.540;7.186;2022-08-19T12:57:04;10.65;;;9.65;;
10845;SDS011;5476;51.540;7.186;2022-08-19T12:59:35;10.25;;;9.45;;
10845;SDS011;5476;51.540;7.186;2022-08-19T13:02:06;11.18;;;9.35;;
10845;SDS011;5476;51.540;7.186;2022-08-19T13:04:34;10.45;;;8.82;;
10845;SDS011;5476;51.540;7.186;2022-08-19T13:07:05;11.45;;;10.18;;
10845;SDS011;5476;51.540;7.186;2022-08-19T13:09:35;10.55;;;9.55;;
10845;SDS011;5476;51.540;7.186;2022-08-19T13:12:03;10.52;;;8.90;;
10845;SDS011;5476;51.540;7.186;2022-08-19T13:14:33;9.18;;;8.38;;
10845;SDS011;5476;51.540;7.186;2022-08-19T13:17:05;9.50;;;8.68;;
10845;SDS011;5476;51.540;7.186;2022-08-19T13:19:36;9.40;;;8.50;;
10845;SDS011;5476;51.540;7.186;2022-08-19T13:22:12;10.30;;;9.40;;
10845;SDS011;5476;51.540;7.186;2022-08-19T13:24:41;9.73;;;8.93;;
10845;SDS011;5476;51.540;7.186;2022-08-19T13:27:12;9.20;;;8.40;;
10845;SDS011;5476;51.540;7.186;2022-08-19T13:29:42;8.85;;;8.05;;
10845;SDS011;5476;51.540;7.186;2022-08-19T13:32:28;8.68;;;7.97;;
10845;SDS011;5476;51.540;7.186;2022-08-19T13:35:14;8.35;;;7.68;;
10845;SDS011;5476;51.540;7.186;2022-08-19T13:37:44;9.52;;;8.50;;
10845;SDS011;5476;51.540;7.186;2022-08-19T13:40:14;8.55;;;7.70;;
10845;SDS011;5476;51.540;7.186;2022-08-19T13:42:44;8.20;;;7.50;;
10845;SDS011;5476;51.540;7.186;2022-08-19T13:45:13;8.25;;;7.30;;
10845;SDS011;5476;51.540;7.186;2022-08-19T13:47:44;7.43;;;6.78;;
10845;SDS011;5476;51.540;7.186;2022-08-19T13:50:16;6.97;;;6.32;;
10845;SDS011;5476;51.540;7.186;2022-08-19T13:52:46;7.38;;;6.68;;
10845;SDS011;5476;51.540;7.186;2022-08-19T13:55:16;7.15;;;6.55;;
10845;SDS011;5476;51.540;7.186;2022-08-19T13:57:44;6.88;;;6.13;;
10845;SDS011;5476;51.540;7.186;2022-08-19T14:00:13;6.53;;;6.03;;
10845;SDS011;5476;51.540;7.186;2022-08-19T14:02:43;7.15;;;6.43;;
10845;SDS011;5476;51.540;7.186;2022-08-19T14:05:24;7.03;;;5.57;;
10845;SDS011;5476;51.540;7.186;2022-08-19T14:07:53;5.80;;;5.40;;
10845;SDS011;5476;51.540;7.186;2022-08-19T14:10:22;7.07;;;6.38;;
10845;SDS011;5476;51.540;7.186;2022-08-19T14:12:52;6.95;;;5.95;;
10845;SDS011;5476;51.540;7.186;2022-08-19T14:15:23;5.93;;;5.38;;
10845;SDS011;5476;51.540;7.186;2022-08-19T14:17:54;6.15;;;5.55;;
10845;SDS011;5476;51.540;7.186;2022-08-19T14:20:22;7.00;;;5.50;;
10845;SDS011;5476;51.540;7.186;2022-08-19T14:22:50;5.78;;;5.20;;
10845;SDS011;5476;51.540;7.186;2022-08-19T14:25:24;5.57;;;5.18;;
10845;SDS011;5476;51.540;7.186;2022-08-19T14:27:57;5.50;;;4.80;;
10845;SDS011;5476;51.540;7.186;2022-08-19T14:30:25;5.43;;;4.85;;
10845;SDS011;5476;51.540;7.186;2022-08-19T14:32:53;5.57;;;5.07;;
10845;SDS011;5476;51.540;7.186;2022-08-19T14:35:21;6.18;;;5.13;;
10845;SDS011;5476;51.540;7.186;2022-08-19T14:37:55;6.00;;;5.43;;
10845;SDS011;5476;51.540;7.186;2022-08-19T14:40:38;5.55;;;5.00;;
10845;SDS011;5476;51.540;7.186;2022-08-19T14:43:30;6.90;;;5.70;;
10845;SDS011;5476;51.540;7.186;2022-08-19T14:46:11;13.95;;;7.95;;
10845;SDS011;5476;51.540;7.186;2022-08-19T14:48:40;8.90;;;6.85;;
10845;SDS011;5476;51.540;7.186;2022-08-19T14:51:08;5.38;;;4.88;;
10845;SDS011;5476;51.540;7.186;2022-08-19T14:53:36;20.23;;;13.07;;
10845;SDS011;5476;51.540;7.186;2022-08-19T14:56:06;7.32;;;6.60;;
10845;SDS011;5476;51.540;7.186;2022-08-19T14:58:36;6.60;;;5.97;;
10845;SDS011;5476;51.540;7.186;2022-08-19T15:01:03;18.10;;;8.70;;
10845;SDS011;5476;51.540;7.186;2022-08-19T15:03:31;7.70;;;6.47;;
10845;SDS011;5476;51.540;7.186;2022-08-19T15:05:59;7.50;;;6.15;;
10845;SDS011;5476;51.540;7.186;2022-08-19T15:08:27;7.15;;;6.40;;
10845;SDS011;5476;51.540;7.186;2022-08-19T15:10:55;7.05;;;6.38;;
10845;SDS011;5476;51.540;7.186;2022-08-19T15:13:24;8.35;;;6.90;;
10845;SDS011;5476;51.540;7.186;2022-08-19T15:15:53;9.23;;;7.55;;
10845;SDS011;5476;51.540;7.186;2022-08-19T15:18:22;7.60;;;6.78;;
10845;SDS011;5476;51.540;7.186;2022-08-19T15:20:50;8.10;;;7.20;;
10845;SDS011;5476;51.540;7.186;2022-08-19T15:23:18;7.63;;;6.93;;
10845;SDS011;5476;51.540;7.186;2022-08-19T15:25:46;9.60;;;8.30;;
10845;SDS011;5476;51.540;7.186;2022-08-19T15:28:14;9.25;;;8.45;;
10845;SDS011;5476;51.540;7.186;2022-08-19T15:30:48;9.38;;;8.48;;
10845;SDS011;5476;51.540;7.186;2022-08-19T15:33:18;9.70;;;8.77;;
10845;SDS011;5476;51.540;7.186;2022-08-19T15:35:46;11.25;;;9.10;;
10845;SDS011;5476;51.540;7.186;2022-08-19T15:38:15;9.32;;;8.50;;
10845;SDS011;5476;51.540;7.186;2022-08-19T15:40:53;10.25;;;9.20;;